NCAR-RAP Real-Time Weather Data

Output produced by METARs form (12 May 2021  10:21 UTC)
found at http://weather.rap.ucar.edu/surface/
 
KAGS 120953Z 00000KT 10SM SCT080 BKN100 20/18 A3000 RMK AO2 SLP155 T02000183
KAGS 120853Z 00000KT 10SM FEW006 21/19 A2999 RMK AO2 RAE23 SLP154 P0000 60017 T02060189 56021
KAGS 120846Z 06004KT 10SM FEW006 20/19 A2999 RMK AO2 RAE23 P0000 T02000189
KAGS 120803Z 31005KT 10SM -RA SCT009 OVC110 21/19 A3000 RMK AO2 P0000 T02060189
KAGS 120753Z 00000KT 10SM -RA BKN009 OVC110 21/19 A3001 RMK AO2 SLP159 P0002 T02060189
KAGS 120742Z 00000KT 9SM -RA BKN009 OVC110 21/19 A3001 RMK AO2 P0002 T02060189
KAGS 120653Z 00000KT 7SM -RA FEW007 OVC100 21/19 A3002 RMK AO2 LTG DSNT E SLP165 P0015 T02060189
KAGS 120612Z 15007KT 3SM +RA BR SCT019 BKN039 OVC100 21/19 A3004 RMK AO2 P0006 T02060189
KAGS 120553Z 19010KT 7SM VCTS -RA FEW018 BKN023 OVC035 21/19 A3006 RMK AO2 LTG DSNT E-SW RAB38 SLP176 P0002 60002 T02110189 10256 20211 53001
KAGS 120537Z 17006KT 10SM VCTS BKN025 BKN037 OVC065 21/18 A3005 RMK AO2 LTG DSNT SE T02110183
KAGS 120453Z 10004KT 10SM BKN041 BKN110 22/18 A3005 RMK AO2 LTG DSNT S AND SW SLP174 T02170178 402940161
KAGS 120353Z 05004KT 10SM BKN110 23/17 A3005 RMK AO2 SLP174 T02280172
KAGS 120253Z 09005KT 10SM FEW090 OVC110 23/18 A3005 RMK AO2 SLP175 T02280178 53016
KAGS 120153Z 06003KT 10SM BKN120 23/18 A3003 RMK AO2 SLP167 T02330183
KAGS 120053Z 00000KT 10SM CLR 23/19 A3001 RMK AO2 SLP162 T02280194
KAGS 112353Z 07003KT 10SM BKN045 BKN055 26/19 A3001 RMK AO2 SLP159 T02610189 10294 20261 55002
KAGS 112253Z 00000KT 10SM CLR 28/17 A3000 RMK AO2 SLP156 T02780172
KAGS 112153Z 00000KT 10SM FEW047 SCT110 28/17 A3000 RMK AO2 SLP156 T02830172
KAGS 112053Z 28004KT 10SM FEW050 SCT060 BKN120 28/17 A3001 RMK AO2 SLP160 T02830167 58012
KAGS 111953Z VRB05KT 10SM SCT046 SCT060 BKN100 29/17 A3002 RMK AO2 SLP165 T02890167
KAGS 111853Z 00000KT 10SM SCT044 SCT060 28/17 A3004 RMK AO2 SLP171 T02780167